createdAt,value
2017-08-10T00:01:41.412Z,14.80
2017-08-10T00:04:08.941Z,14.80
2017-08-10T00:06:36.484Z,14.90
2017-08-10T00:09:03.961Z,14.80
2017-08-10T00:11:31.460Z,14.70
2017-08-10T00:13:59.721Z,14.70
2017-08-10T00:16:27.199Z,14.70
2017-08-10T00:18:55.464Z,14.70
2017-08-10T00:21:23.706Z,14.80
2017-08-10T00:23:51.192Z,14.80
2017-08-10T00:26:19.436Z,14.70
2017-08-10T00:28:46.937Z,14.70
2017-08-10T00:31:15.207Z,14.80
2017-08-10T00:33:43.452Z,14.80
2017-08-10T00:36:10.953Z,14.80
2017-08-10T00:38:39.213Z,14.90
2017-08-10T00:41:07.489Z,14.80
2017-08-10T00:43:34.997Z,14.80
2017-08-10T00:46:02.480Z,14.90
2017-08-10T00:48:30.020Z,14.90
2017-08-10T00:50:57.523Z,14.80
2017-08-10T00:53:24.995Z,14.80
2017-08-10T00:55:53.277Z,14.80
2017-08-10T00:58:21.529Z,14.70
2017-08-10T01:00:49.008Z,14.70
2017-08-10T01:03:16.517Z,14.80
2017-08-10T01:05:43.985Z,14.90
2017-08-10T01:08:11.480Z,14.80
2017-08-10T01:10:39.716Z,14.70
2017-08-10T01:13:07.212Z,14.70
2017-08-10T01:15:35.448Z,14.70
2017-08-10T01:18:02.959Z,14.70
2017-08-10T01:20:30.458Z,14.60
2017-08-10T01:22:57.948Z,14.60
2017-08-10T01:25:25.436Z,14.60
2017-08-10T01:27:52.944Z,14.70
2017-08-10T01:30:20.436Z,14.60
2017-08-10T01:32:47.913Z,14.60
2017-08-10T01:35:15.413Z,14.60
2017-08-10T01:37:42.920Z,14.80
2017-08-10T01:40:10.396Z,14.90
2017-08-10T01:42:37.916Z,14.90
2017-08-10T01:45:06.164Z,14.90
2017-08-10T01:47:33.676Z,14.80
2017-08-10T01:50:01.916Z,14.80
2017-08-10T01:52:29.393Z,14.80
2017-08-10T01:54:56.885Z,14.80
2017-08-10T01:57:24.368Z,14.80
2017-08-10T01:59:51.878Z,14.80
2017-08-10T02:02:20.147Z,14.90
2017-08-10T02:04:47.686Z,14.90
2017-08-10T02:07:15.214Z,14.90
2017-08-10T02:09:42.680Z,14.90
2017-08-10T02:12:10.203Z,14.80
2017-08-10T02:14:37.701Z,14.80
2017-08-10T02:17:05.193Z,14.80
2017-08-10T02:19:32.717Z,14.80
2017-08-10T02:22:00.222Z,14.90
2017-08-10T02:24:28.463Z,15.10
2017-08-10T02:26:55.984Z,15.00
2017-08-10T02:29:23.461Z,15.10
2017-08-10T02:31:50.966Z,15.00
2017-08-10T02:34:18.445Z,15.00
2017-08-10T02:36:45.971Z,14.90
2017-08-10T02:39:13.478Z,14.80
2017-08-10T02:41:40.964Z,14.90
2017-08-10T02:44:08.469Z,14.90
2017-08-10T02:46:36.717Z,14.90
2017-08-10T02:49:04.201Z,14.80
2017-08-10T02:51:32.476Z,14.80
2017-08-10T02:54:00.720Z,14.80
2017-08-10T02:56:28.204Z,14.80
2017-08-10T02:58:56.467Z,14.90
2017-08-10T03:01:23.945Z,14.90
2017-08-10T03:03:52.219Z,14.80
2017-08-10T03:06:20.459Z,14.80
2017-08-10T03:08:47.952Z,14.80
2017-08-10T03:11:16.204Z,14.90
2017-08-10T03:13:43.697Z,14.90
2017-08-10T03:16:11.193Z,14.90
2017-08-10T03:18:38.676Z,14.90
2017-08-10T03:21:06.172Z,14.70
2017-08-10T03:23:34.413Z,14.70
2017-08-10T03:26:01.889Z,14.70
2017-08-10T03:28:30.165Z,14.70
2017-08-10T03:30:57.644Z,14.70
2017-08-10T03:33:25.144Z,14.70
2017-08-10T03:35:52.629Z,14.60
2017-08-10T03:38:20.113Z,14.80
2017-08-10T03:40:47.625Z,14.70
2017-08-10T03:43:15.107Z,14.70
2017-08-10T03:45:42.617Z,14.60
2017-08-10T03:48:10.120Z,14.70
2017-08-10T03:50:37.604Z,14.60
2017-08-10T03:53:05.860Z,14.70
2017-08-10T03:55:33.363Z,14.70
2017-08-10T03:58:00.858Z,14.80
2017-08-10T04:00:28.378Z,14.70
2017-08-10T04:02:55.871Z,14.60
2017-08-10T04:05:23.369Z,14.60
2017-08-10T04:07:51.603Z,14.40
2017-08-10T04:10:19.082Z,14.40
2017-08-10T04:12:46.602Z,14.30
2017-08-10T04:15:14.076Z,14.40
2017-08-10T04:17:41.549Z,14.30
2017-08-10T04:20:09.054Z,14.50
2017-08-10T04:22:36.530Z,14.60
2017-08-10T04:25:04.034Z,14.50
2017-08-10T04:27:31.512Z,14.40
2017-08-10T04:29:59.753Z,14.40
2017-08-10T04:32:27.251Z,14.40
2017-08-10T04:34:54.743Z,14.40
2017-08-10T04:37:22.236Z,14.40
2017-08-10T04:39:49.712Z,14.40
2017-08-10T04:42:17.980Z,14.50
2017-08-10T04:44:45.496Z,14.50
2017-08-10T04:47:12.981Z,14.40
2017-08-10T04:49:40.449Z,14.40
2017-08-10T04:52:07.930Z,14.40
2017-08-10T04:54:36.196Z,14.40
2017-08-10T04:57:04.464Z,14.40
2017-08-10T04:59:31.942Z,14.40
2017-08-10T05:02:00.176Z,14.60
2017-08-10T05:04:27.680Z,14.60
2017-08-10T05:06:55.928Z,14.40
2017-08-10T05:09:23.425Z,14.40
2017-08-10T05:11:50.901Z,14.40
2017-08-10T05:14:18.398Z,14.40
2017-08-10T05:16:47.684Z,14.40
2017-08-10T05:19:15.165Z,14.60
2017-08-10T05:21:42.665Z,14.60
2017-08-10T05:24:10.141Z,14.60
2017-08-10T05:26:37.647Z,14.70
2017-08-10T05:29:05.905Z,14.80
2017-08-10T05:31:33.376Z,14.70
2017-08-10T05:34:01.644Z,14.70
2017-08-10T05:36:29.127Z,14.70
2017-08-10T05:38:57.405Z,14.80
2017-08-10T05:41:25.650Z,14.80
2017-08-10T05:43:53.136Z,14.80
2017-08-10T05:46:22.189Z,14.80
2017-08-10T05:48:49.685Z,14.70
2017-08-10T05:51:17.924Z,14.80
2017-08-10T05:53:45.434Z,14.80
2017-08-10T05:56:12.931Z,14.70
2017-08-10T05:58:40.442Z,14.70
2017-08-10T06:01:08.673Z,14.50
2017-08-10T06:03:36.181Z,14.50
2017-08-10T06:06:04.495Z,14.80
2017-08-10T06:08:31.984Z,14.80
2017-08-10T06:10:59.572Z,14.90
2017-08-10T06:13:27.821Z,15.00
2017-08-10T06:15:55.333Z,14.90
2017-08-10T06:18:22.819Z,14.90
2017-08-10T06:20:50.299Z,15.00
2017-08-10T06:23:17.799Z,15.00
2017-08-10T06:25:45.290Z,15.00
2017-08-10T06:28:12.761Z,15.00
2017-08-10T06:30:40.276Z,15.00
2017-08-10T06:33:07.763Z,15.10
2017-08-10T06:35:35.292Z,15.10
2017-08-10T06:38:02.788Z,15.00
2017-08-10T06:40:30.284Z,15.00
2017-08-10T06:42:57.893Z,15.10
2017-08-10T06:45:25.377Z,15.00
2017-08-10T06:47:52.860Z,15.00
2017-08-10T06:50:21.114Z,14.90
2017-08-10T06:52:48.600Z,14.90
2017-08-10T06:55:16.868Z,14.90
2017-08-10T06:57:44.378Z,14.90
2017-08-10T07:00:11.881Z,15.00
2017-08-10T07:02:39.390Z,14.90
2017-08-10T07:05:06.866Z,14.90
2017-08-10T07:07:34.367Z,15.00
2017-08-10T07:10:02.624Z,14.90
2017-08-10T07:12:30.099Z,14.90
2017-08-10T07:14:57.597Z,14.80
2017-08-10T07:17:25.073Z,14.70
2017-08-10T07:19:52.580Z,14.60
2017-08-10T07:22:20.833Z,14.50
2017-08-10T07:24:48.315Z,14.50
2017-08-10T07:27:17.140Z,14.40
2017-08-10T07:29:44.617Z,14.40
2017-08-10T07:32:12.120Z,14.40
2017-08-10T07:34:40.367Z,14.40
2017-08-10T07:37:07.859Z,14.40
2017-08-10T07:39:36.103Z,14.50
2017-08-10T07:42:03.580Z,14.40
2017-08-10T07:44:31.853Z,14.20
2017-08-10T07:47:00.096Z,14.30
2017-08-10T07:49:27.696Z,14.20
2017-08-10T07:51:55.944Z,14.30
2017-08-10T07:54:23.462Z,14.20
2017-08-10T07:56:50.960Z,14.20
2017-08-10T07:59:18.441Z,14.20
2017-08-10T08:01:46.705Z,14.20
2017-08-10T08:04:14.193Z,14.20
2017-08-10T08:06:42.473Z,14.10
2017-08-10T08:09:10.794Z,14.10
2017-08-10T08:11:38.264Z,14.00
2017-08-10T08:14:06.781Z,14.00
2017-08-10T08:16:35.036Z,13.90
2017-08-10T08:19:02.528Z,13.80
2017-08-10T08:21:30.033Z,13.70
2017-08-10T08:23:57.529Z,13.80
2017-08-10T08:26:25.782Z,13.80
2017-08-10T08:28:53.268Z,13.80
2017-08-10T08:31:21.521Z,13.90
2017-08-10T08:33:48.999Z,13.90
2017-08-10T08:36:17.270Z,13.90
2017-08-10T08:38:45.508Z,13.90
2017-08-10T08:41:12.987Z,13.90
2017-08-10T08:43:40.498Z,13.80
2017-08-10T08:46:07.983Z,13.80
2017-08-10T08:48:35.485Z,13.80
2017-08-10T08:51:03.812Z,13.80
2017-08-10T08:53:31.285Z,13.80
2017-08-10T08:55:58.780Z,13.80
2017-08-10T08:58:27.015Z,13.80
2017-08-10T09:00:54.518Z,13.70
2017-08-10T09:03:22.801Z,13.70
2017-08-10T09:05:50.276Z,13.70
2017-08-10T09:08:17.740Z,13.60
2017-08-10T09:10:45.265Z,13.50
2017-08-10T09:13:13.501Z,13.50
2017-08-10T09:15:40.985Z,13.40
2017-08-10T09:18:08.483Z,13.40
2017-08-10T09:20:35.998Z,13.50
2017-08-10T09:23:03.495Z,13.40
2017-08-10T09:25:30.964Z,13.40
2017-08-10T09:27:58.448Z,13.30
2017-08-10T09:30:25.949Z,13.20
2017-08-10T09:32:54.197Z,13.20
2017-08-10T09:35:21.688Z,13.20
2017-08-10T09:37:49.932Z,13.30
2017-08-10T09:40:17.421Z,13.20
2017-08-10T09:42:45.680Z,13.30
2017-08-10T09:45:13.160Z,13.30
2017-08-10T09:47:41.421Z,13.30
2017-08-10T09:50:09.673Z,13.30
2017-08-10T09:52:37.176Z,13.30
2017-08-10T09:55:04.654Z,13.30
2017-08-10T09:57:32.144Z,13.20
2017-08-10T09:59:59.647Z,13.30
2017-08-10T10:02:27.123Z,13.30
2017-08-10T10:04:54.600Z,13.40
2017-08-10T10:07:22.093Z,13.40
2017-08-10T10:09:49.581Z,13.50
2017-08-10T10:12:17.089Z,13.60
2017-08-10T10:14:44.581Z,13.80
2017-08-10T10:17:12.825Z,13.70
2017-08-10T10:19:40.329Z,13.60
2017-08-10T10:22:08.570Z,13.40
2017-08-10T10:24:36.061Z,13.40
2017-08-10T10:27:04.305Z,13.30
2017-08-10T10:29:31.832Z,13.30
2017-08-10T10:31:59.307Z,13.30
2017-08-10T10:34:26.851Z,13.30
2017-08-10T10:36:54.329Z,13.30
2017-08-10T10:39:21.810Z,13.10
2017-08-10T10:41:49.297Z,13.20
2017-08-10T10:44:16.789Z,13.20
2017-08-10T10:46:44.261Z,13.20
2017-08-10T10:49:11.799Z,13.10
2017-08-10T10:51:39.276Z,13.00
2017-08-10T10:54:06.797Z,12.90
2017-08-10T10:56:34.269Z,12.90
2017-08-10T10:59:01.835Z,13.00
2017-08-10T11:01:29.325Z,13.10
2017-08-10T11:03:56.804Z,13.10
2017-08-10T11:06:25.061Z,13.00
2017-08-10T11:08:52.530Z,13.00
2017-08-10T11:11:20.010Z,13.00
2017-08-10T11:13:48.265Z,13.10
2017-08-10T11:16:15.739Z,13.00
2017-08-10T11:18:43.997Z,13.10
2017-08-10T11:21:11.476Z,13.00
2017-08-10T11:23:39.849Z,13.00
2017-08-10T11:26:08.112Z,13.00
2017-08-10T11:28:35.593Z,13.00
2017-08-10T11:31:03.840Z,12.90
2017-08-10T11:33:31.339Z,12.80
2017-08-10T11:35:58.838Z,12.90
2017-08-10T11:38:26.320Z,13.00
2017-08-10T11:40:53.800Z,12.90
2017-08-10T11:43:22.077Z,12.90
2017-08-10T11:45:50.320Z,13.00
2017-08-10T11:48:17.793Z,12.90
2017-08-10T11:50:45.310Z,13.00
2017-08-10T11:53:12.791Z,12.90
2017-08-10T11:55:40.290Z,12.80
2017-08-10T11:58:08.542Z,12.90
2017-08-10T12:00:36.020Z,12.80
2017-08-10T12:03:04.278Z,12.90
2017-08-10T12:05:31.756Z,12.80
2017-08-10T12:08:00.001Z,12.80
2017-08-10T12:10:27.468Z,12.80
2017-08-10T12:12:54.947Z,12.80
2017-08-10T12:15:23.215Z,12.70
2017-08-10T12:17:50.681Z,12.70
2017-08-10T12:20:18.941Z,12.80
2017-08-10T12:22:46.424Z,12.80
2017-08-10T12:25:13.916Z,12.70
2017-08-10T12:27:41.411Z,12.80
2017-08-10T12:30:09.652Z,12.90
2017-08-10T12:32:37.148Z,12.90
2017-08-10T12:35:05.408Z,12.80
2017-08-10T12:37:32.910Z,12.70
2017-08-10T12:40:00.376Z,12.90
2017-08-10T12:42:27.852Z,12.90
2017-08-10T12:44:55.418Z,12.90
2017-08-10T12:47:22.889Z,12.80
2017-08-10T12:49:50.358Z,12.70
2017-08-10T12:52:17.853Z,12.70
2017-08-10T12:54:46.103Z,12.70
2017-08-10T12:57:13.616Z,12.70
2017-08-10T12:59:41.080Z,12.70
2017-08-10T13:02:08.561Z,12.70
2017-08-10T13:04:36.055Z,12.70
2017-08-10T13:07:04.300Z,12.70
2017-08-10T13:09:31.795Z,12.70
2017-08-10T13:12:00.064Z,12.90
2017-08-10T13:14:28.316Z,12.90
2017-08-10T13:16:55.799Z,12.90
2017-08-10T13:19:24.088Z,12.80
2017-08-10T13:21:51.568Z,12.70
2017-08-10T13:24:19.056Z,12.80
2017-08-10T13:26:46.551Z,12.90
2017-08-10T13:29:14.800Z,12.90
2017-08-10T13:31:42.301Z,12.90
2017-08-10T13:34:09.794Z,13.00
2017-08-10T13:36:37.273Z,13.10
2017-08-10T13:39:04.776Z,13.00
2017-08-10T13:41:32.262Z,13.00
2017-08-10T13:43:59.751Z,13.00
2017-08-10T13:46:27.239Z,12.80
2017-08-10T13:48:55.550Z,12.80
2017-08-10T13:51:23.047Z,12.80
2017-08-10T13:53:50.533Z,12.80
2017-08-10T13:56:18.805Z,12.80
2017-08-10T13:58:47.048Z,12.90
2017-08-10T14:01:14.525Z,12.90
2017-08-10T14:03:42.786Z,12.90
2017-08-10T14:06:10.260Z,12.90
2017-08-10T14:08:38.530Z,12.90
2017-08-10T14:11:06.024Z,12.90
2017-08-10T14:13:33.500Z,12.90
2017-08-10T14:16:00.996Z,12.90
2017-08-10T14:18:28.473Z,12.80
2017-08-10T14:20:56.741Z,13.00
2017-08-10T14:23:24.252Z,12.90
2017-08-10T14:25:51.736Z,13.00
2017-08-10T14:28:19.268Z,13.10
2017-08-10T14:30:46.765Z,13.20
2017-08-10T14:33:14.286Z,13.40
2017-08-10T14:35:41.753Z,13.60
2017-08-10T14:38:09.250Z,13.80
2017-08-10T14:40:36.761Z,13.80
2017-08-10T14:43:04.297Z,13.80
2017-08-10T14:45:31.776Z,13.90
2017-08-10T14:47:59.250Z,14.10
2017-08-10T14:50:26.752Z,14.30
2017-08-10T14:52:55.006Z,14.80
2017-08-10T14:55:22.511Z,14.80
2017-08-10T14:57:50.001Z,14.90
2017-08-10T15:00:17.494Z,14.90
2017-08-10T15:02:44.973Z,14.90
2017-08-10T15:05:12.471Z,14.90
2017-08-10T15:07:39.961Z,15.10
2017-08-10T15:10:07.458Z,15.60
2017-08-10T15:12:34.941Z,16.00
2017-08-10T15:15:02.419Z,16.00
2017-08-10T15:17:29.912Z,16.00
2017-08-10T15:19:58.157Z,15.70
2017-08-10T15:22:25.692Z,15.80
2017-08-10T15:24:53.168Z,15.80
2017-08-10T15:27:20.650Z,16.00
2017-08-10T15:29:48.164Z,15.90
2017-08-10T15:32:15.641Z,15.80
2017-08-10T15:34:43.153Z,15.50
2017-08-10T15:37:10.651Z,15.40
2017-08-10T15:39:38.117Z,15.10
2017-08-10T15:42:05.612Z,15.10
2017-08-10T15:44:33.858Z,15.10
2017-08-10T15:47:01.344Z,15.10
2017-08-10T15:49:29.592Z,15.20
2017-08-10T15:51:57.106Z,15.20
2017-08-10T15:54:24.589Z,15.20
2017-08-10T15:56:52.057Z,15.10
2017-08-10T15:59:19.575Z,15.00
2017-08-10T16:01:47.066Z,14.90
2017-08-10T16:04:14.548Z,14.60
2017-08-10T16:06:42.048Z,14.40
2017-08-10T16:09:09.559Z,14.40
2017-08-10T16:11:37.060Z,14.20
2017-08-10T16:14:04.553Z,14.10
2017-08-10T16:16:32.101Z,14.00
2017-08-10T16:18:59.612Z,13.70
2017-08-10T16:21:27.085Z,13.70
2017-08-10T16:23:55.352Z,13.50
2017-08-10T16:26:23.596Z,13.40
2017-08-10T16:28:51.088Z,13.40
2017-08-10T16:31:19.351Z,13.40
2017-08-10T16:33:46.832Z,13.30
2017-08-10T16:36:15.112Z,13.30
2017-08-10T16:38:43.355Z,13.40
2017-08-10T16:41:10.832Z,13.40
2017-08-10T16:43:39.088Z,13.40
2017-08-10T16:46:06.569Z,13.40
2017-08-10T16:48:34.889Z,13.40
2017-08-10T16:51:02.355Z,13.30
2017-08-10T16:53:29.860Z,13.40
2017-08-10T16:55:58.127Z,13.30
2017-08-10T16:58:25.596Z,13.30
2017-08-10T17:00:53.856Z,13.30
2017-08-10T17:03:21.342Z,13.30
2017-08-10T17:05:48.843Z,13.20
2017-08-10T17:08:16.340Z,13.30
2017-08-10T17:10:43.830Z,13.20
2017-08-10T17:13:11.338Z,13.40
2017-08-10T17:15:38.813Z,13.40
2017-08-10T17:18:06.302Z,13.40
2017-08-10T17:20:33.825Z,13.30
2017-08-10T17:23:01.448Z,13.30
2017-08-10T17:25:28.936Z,13.20
2017-08-10T17:27:56.411Z,13.20
2017-08-10T17:30:24.703Z,13.20
2017-08-10T17:32:52.936Z,13.20
2017-08-10T17:35:20.421Z,13.20
2017-08-10T17:37:47.920Z,13.20
2017-08-10T17:40:15.398Z,13.10
2017-08-10T17:42:42.879Z,13.10
2017-08-10T17:45:10.408Z,13.10
2017-08-10T17:47:37.887Z,13.00
2017-08-10T17:50:05.373Z,13.00
2017-08-10T17:52:33.612Z,13.10
2017-08-10T17:55:01.093Z,13.10
2017-08-10T17:57:28.592Z,13.20
2017-08-10T17:59:56.082Z,13.10
2017-08-10T18:02:23.551Z,13.20
2017-08-10T18:04:51.056Z,13.30
2017-08-10T18:07:18.533Z,13.20
2017-08-10T18:09:46.028Z,13.10
2017-08-10T18:12:13.504Z,13.10
2017-08-10T18:14:40.992Z,13.00
2017-08-10T18:17:08.504Z,13.00
2017-08-10T18:19:36.001Z,13.00
2017-08-10T18:22:04.269Z,13.00
2017-08-10T18:24:32.593Z,13.00
2017-08-10T18:27:00.074Z,12.90
2017-08-10T18:29:27.588Z,12.90
2017-08-10T18:31:55.056Z,12.80
2017-08-10T18:34:22.583Z,12.90
2017-08-10T18:36:50.824Z,12.90
2017-08-10T18:39:18.293Z,12.90
2017-08-10T18:41:45.800Z,12.80
2017-08-10T18:44:14.251Z,12.80
2017-08-10T18:46:43.426Z,12.70
2017-08-10T18:49:10.967Z,12.70
2017-08-10T18:51:38.594Z,12.60
2017-08-10T18:54:06.129Z,12.60
2017-08-10T18:56:34.514Z,12.50
2017-08-10T18:59:02.855Z,12.60
2017-08-10T19:01:30.702Z,12.60
2017-08-10T19:03:58.354Z,12.60
2017-08-10T19:06:27.524Z,12.60
2017-08-10T19:08:55.097Z,12.60
2017-08-10T19:11:22.688Z,12.60
2017-08-10T19:13:50.227Z,12.60
2017-08-10T19:16:18.008Z,12.50
2017-08-10T19:18:45.879Z,12.50
2017-08-10T19:21:14.560Z,12.50
2017-08-10T19:23:42.428Z,12.50
2017-08-10T19:26:10.294Z,12.40
2017-08-10T19:28:38.163Z,12.50
2017-08-10T19:31:05.979Z,12.50
2017-08-10T19:33:33.792Z,12.40
2017-08-10T19:36:01.659Z,12.50
2017-08-10T19:38:29.527Z,12.40
2017-08-10T19:40:57.394Z,12.50
2017-08-10T19:43:25.263Z,12.40
2017-08-10T19:45:53.129Z,12.50
2017-08-10T19:48:20.997Z,12.40
2017-08-10T19:50:48.965Z,12.40
2017-08-10T19:53:16.833Z,12.40
2017-08-10T19:55:44.462Z,12.40
2017-08-10T19:58:12.361Z,12.50
2017-08-10T20:00:40.232Z,12.40
2017-08-10T20:03:07.838Z,12.40
2017-08-10T20:05:36.476Z,12.40
2017-08-10T20:08:04.342Z,12.40
2017-08-10T20:10:31.913Z,12.40
2017-08-10T20:12:59.564Z,12.40
2017-08-10T20:15:27.103Z,12.40
2017-08-10T20:17:54.738Z,12.40
2017-08-10T20:20:22.267Z,12.30
2017-08-10T20:22:49.806Z,12.40
2017-08-10T20:25:17.428Z,12.40
2017-08-10T20:27:45.027Z,12.40
2017-08-10T20:30:12.540Z,12.40
2017-08-10T20:32:40.793Z,12.40
2017-08-10T20:35:08.317Z,12.30
2017-08-10T20:37:35.843Z,12.40
2017-08-10T20:40:04.072Z,12.30
2017-08-10T20:42:31.555Z,12.30
2017-08-10T20:44:59.042Z,12.20
2017-08-10T20:47:27.298Z,12.20
2017-08-10T20:49:54.798Z,12.10
2017-08-10T20:52:22.298Z,12.10
2017-08-10T20:54:49.780Z,12.10
2017-08-10T20:57:18.099Z,12.10
2017-08-10T20:59:45.648Z,12.10
2017-08-10T21:02:13.167Z,12.10
2017-08-10T21:04:40.653Z,12.10
2017-08-10T21:07:08.137Z,12.10
2017-08-10T21:09:35.644Z,12.00
2017-08-10T21:12:03.132Z,11.90
2017-08-10T21:14:30.716Z,11.90
2017-08-10T21:16:58.225Z,11.80
2017-08-10T21:19:26.458Z,11.80
2017-08-10T21:21:53.965Z,11.70
2017-08-10T21:24:22.236Z,11.70
2017-08-10T21:26:49.729Z,11.70
2017-08-10T21:29:17.299Z,11.70
2017-08-10T21:31:44.862Z,11.70
2017-08-10T21:34:12.348Z,11.60
2017-08-10T21:36:39.813Z,11.50
2017-08-10T21:39:07.313Z,11.50
2017-08-10T21:41:34.793Z,11.50
2017-08-10T21:44:02.261Z,11.50
2017-08-10T21:46:29.770Z,11.50
2017-08-10T21:48:58.035Z,11.50
2017-08-10T21:51:25.522Z,11.50
2017-08-10T21:53:52.992Z,11.60
2017-08-10T21:56:20.476Z,11.60
2017-08-10T21:58:47.990Z,11.60
2017-08-10T22:01:16.232Z,11.60
2017-08-10T22:03:43.722Z,11.50
2017-08-10T22:06:12.065Z,11.50
2017-08-10T22:08:39.537Z,11.50
2017-08-10T22:11:07.053Z,11.50
2017-08-10T22:13:34.523Z,11.50
2017-08-10T22:16:02.067Z,11.50
2017-08-10T22:18:29.581Z,11.60
2017-08-10T22:20:57.852Z,11.50
2017-08-10T22:23:26.098Z,11.50
2017-08-10T22:25:54.392Z,11.50
2017-08-10T22:28:26.664Z,11.50
2017-08-10T22:30:54.865Z,11.50
2017-08-10T22:33:23.662Z,11.40
2017-08-10T22:35:57.414Z,11.40
2017-08-10T22:38:24.892Z,11.50
2017-08-10T22:40:52.382Z,11.40
2017-08-10T22:43:19.896Z,11.40
2017-08-10T22:45:47.396Z,11.40
2017-08-10T22:48:15.653Z,11.40
2017-08-10T22:50:43.133Z,11.30
2017-08-10T22:53:10.637Z,11.30
2017-08-10T22:55:38.129Z,11.30
2017-08-10T22:58:05.610Z,11.30
2017-08-10T23:00:33.843Z,11.30
2017-08-10T23:03:01.333Z,11.30
2017-08-10T23:05:29.577Z,11.40
2017-08-10T23:07:57.078Z,11.30
2017-08-10T23:10:25.345Z,11.40
2017-08-10T23:12:53.593Z,11.40
2017-08-10T23:15:21.077Z,11.40
2017-08-10T23:17:49.312Z,11.50
2017-08-10T23:20:16.816Z,11.50
2017-08-10T23:22:45.057Z,11.40
2017-08-10T23:25:12.533Z,11.40
2017-08-10T23:27:40.043Z,11.50
2017-08-10T23:30:07.508Z,11.60
2017-08-10T23:32:35.004Z,11.50
2017-08-10T23:35:02.473Z,11.60
2017-08-10T23:37:30.728Z,11.60
2017-08-10T23:39:58.221Z,11.60
2017-08-10T23:42:26.460Z,11.70
2017-08-10T23:44:53.953Z,11.70
2017-08-10T23:47:22.188Z,11.70
2017-08-10T23:49:49.665Z,11.70
2017-08-10T23:52:17.154Z,11.70
2017-08-10T23:54:44.618Z,11.80
2017-08-10T23:57:12.112Z,11.80
2017-08-10T23:59:39.605Z,11.80
